CheckWX is a tool to help pilots better visualize weather data.  It is not intended as a substitute for an official pre-flight weather briefing.

08:24:55 UTC

KPMU METAR
Panola County Airport
Batesville, Mississippi, USA
Current

30 mins ago

KPMU 030755Z AUTO 00000KT 10SM CLR 12/10 A3001 RMK AO2
Observed
Apr-3 @ 07:55 UTC
Visibility
Flight Rules
VFR
Cloud Levels
  • Clear skies
Temperature
12°C / 54°F
Dewpoint
10°C / 50°F
Humidity
88%
Altimeter
30.01" Hg
Pressure
1016.22 hPa
Previous

50 mins ago

KPMU 030735Z AUTO 00000KT 10SM CLR 11/10 A3001 RMK AO2
Observed
Apr-3 @ 07:35 UTC
Visibility
Flight Rules
VFR
Cloud Levels
  • Clear skies
Temperature
11°C / 52°F
Dewpoint
10°C / 50°F
Humidity
94%
Altimeter
30.01" Hg
Pressure
1016.22 hPa
Previous

1 hour ago

KPMU 030715Z AUTO 00000KT 10SM CLR 11/10 A3001 RMK AO2
Observed
Apr-3 @ 07:15 UTC
Visibility
Flight Rules
VFR
Cloud Levels
  • Clear skies
Temperature
11°C / 52°F
Dewpoint
10°C / 50°F
Humidity
94%
Altimeter
30.01" Hg
Pressure
1016.22 hPa